TimeCST,TemperatureF,Dew PointF,Humidity,Sea Level PressureIn,VisibilityMPH,Wind Direction,Wind SpeedMPH,Gust SpeedMPH,PrecipitationIn,Events,Conditions,WindDirDegrees,DateUTC
12:54 AM,30.0,21.9,72,30.31,10.0,SSE,9.2,-,N/A,,Clear,160,2013-01-07 06:54:00
1:54 AM,28.9,21.0,72,30.29,10.0,SSE,8.1,-,N/A,,Clear,160,2013-01-07 07:54:00
2:54 AM,30.0,21.0,69,30.29,10.0,South,10.4,-,N/A,,Clear,170,2013-01-07 08:54:00
3:54 AM,30.0,19.9,66,30.28,10.0,South,9.2,-,N/A,,Clear,180,2013-01-07 09:54:00
4:54 AM,27.0,19.0,72,30.27,10.0,SSE,8.1,-,N/A,,Clear,160,2013-01-07 10:54:00
5:54 AM,27.0,19.0,72,30.26,10.0,South,4.6,-,N/A,,Clear,190,2013-01-07 11:54:00
6:54 AM,28.0,19.9,72,30.27,10.0,SSE,9.2,-,N/A,,Clear,160,2013-01-07 12:54:00
7:54 AM,30.0,21.0,69,30.27,10.0,SSE,11.5,-,N/A,,Clear,160,2013-01-07 13:54:00
8:54 AM,34.0,21.9,61,30.27,10.0,South,12.7,-,N/A,,Clear,170,2013-01-07 14:54:00
9:54 AM,39.0,23.0,53,30.27,10.0,South,17.3,-,N/A,,Clear,190,2013-01-07 15:54:00
10:54 AM,42.1,23.0,47,30.26,10.0,South,16.1,26.5,N/A,,Clear,190,2013-01-07 16:54:00
11:54 AM,46.0,24.1,42,30.22,10.0,SSW,20.7,27.6,N/A,,Clear,200,2013-01-07 17:54:00
1:54 PM,51.1,25.0,36,30.14,10.0,SSW,16.1,-,N/A,,Clear,200,2013-01-07 19:54:00
2:54 PM,52.0,25.0,35,30.13,10.0,SSW,16.1,-,N/A,,Clear,200,2013-01-07 20:54:00
3:54 PM,51.1,24.1,35,30.12,10.0,SSW,19.6,24.2,N/A,,Clear,200,2013-01-07 21:54:00
5:54 PM,46.9,25.0,42,30.11,10.0,South,15.0,-,N/A,,Clear,190,2013-01-07 23:54:00
6:54 PM,43.0,25.0,49,30.11,10.0,South,10.4,-,N/A,,Clear,180,2013-01-08 00:54:00
7:54 PM,39.9,24.1,53,30.11,10.0,SSE,5.8,-,N/A,,Clear,150,2013-01-08 01:54:00
8:54 PM,39.0,26.1,60,30.09,10.0,South,11.5,-,N/A,,Clear,170,2013-01-08 02:54:00
9:54 PM,37.9,26.1,62,30.08,10.0,South,11.5,-,N/A,,Clear,170,2013-01-08 03:54:00
10:54 PM,39.0,27.0,62,30.08,10.0,South,12.7,-,N/A,,Clear,180,2013-01-08 04:54:00
11:54 PM,39.0,28.9,67,30.07,10.0,South,11.5,-,N/A,,Clear,180,2013-01-08 05:54:00